createdAt,value
2018-07-23T00:00:19.417Z,8.93
2018-07-23T00:02:48.281Z,10.53
2018-07-23T00:05:17.792Z,12.50
2018-07-23T00:07:46.942Z,11.07
2018-07-23T00:10:15.833Z,9.73
2018-07-23T00:12:44.675Z,10.20
2018-07-23T00:15:13.515Z,12.47
2018-07-23T00:17:42.951Z,10.77
2018-07-23T00:20:12.111Z,10.57
2018-07-23T00:22:40.964Z,9.30
2018-07-23T00:25:09.810Z,11.83
2018-07-23T00:27:38.659Z,8.30
2018-07-23T00:30:07.845Z,10.50
2018-07-23T00:32:37.138Z,9.77
2018-07-23T00:35:06.297Z,12.40
2018-07-23T00:37:35.411Z,10.27
2018-07-23T00:40:04.546Z,13.00
2018-07-23T00:42:33.404Z,15.07
2018-07-23T00:45:03.040Z,11.30
2018-07-23T00:47:31.927Z,10.80
2018-07-23T00:50:00.789Z,11.20
2018-07-23T00:52:29.654Z,10.47
2018-07-23T00:54:58.810Z,13.37
2018-07-23T00:57:27.684Z,11.63
2018-07-23T00:59:56.597Z,11.63
2018-07-23T01:02:25.981Z,12.50
2018-07-23T01:04:55.142Z,11.80
2018-07-23T01:07:24.292Z,11.80
2018-07-23T01:09:53.575Z,11.13
2018-07-23T01:12:29.071Z,11.77
2018-07-23T01:14:58.013Z,10.57
2018-07-23T01:17:26.842Z,11.07
2018-07-23T01:19:56.731Z,9.87
2018-07-23T01:22:26.675Z,12.10
2018-07-23T01:24:56.746Z,10.50
2018-07-23T01:27:26.708Z,10.60
2018-07-23T01:29:55.588Z,10.87
2018-07-23T01:32:24.714Z,10.63
2018-07-23T01:34:53.545Z,11.60
2018-07-23T01:37:22.643Z,14.77
2018-07-23T01:39:51.739Z,12.73
2018-07-23T01:42:20.622Z,10.97
2018-07-23T01:44:50.027Z,11.40
2018-07-23T01:47:18.874Z,11.63
2018-07-23T01:49:47.736Z,9.90
2018-07-23T01:52:16.654Z,12.70
2018-07-23T01:54:45.843Z,10.17
2018-07-23T01:57:14.987Z,11.40
2018-07-23T01:59:44.326Z,9.97
2018-07-23T02:02:13.436Z,11.40
2018-07-23T02:04:42.290Z,12.30
2018-07-23T02:07:11.171Z,10.77
2018-07-23T02:09:40.675Z,11.57
2018-07-23T02:12:09.531Z,10.07
2018-07-23T02:14:38.967Z,10.47
2018-07-23T02:17:08.434Z,10.17
2018-07-23T02:19:37.570Z,10.90
2018-07-23T02:22:06.767Z,10.03
2018-07-23T02:24:35.613Z,11.23
2018-07-23T02:27:04.579Z,11.27
2018-07-23T02:29:33.448Z,9.90
2018-07-23T02:32:02.482Z,9.47
2018-07-23T02:34:31.646Z,10.30
2018-07-23T02:37:01.036Z,10.33
2018-07-23T02:39:29.904Z,9.43
2018-07-23T02:41:58.875Z,9.97
2018-07-23T02:44:28.013Z,11.30
2018-07-23T02:46:56.892Z,10.60
2018-07-23T02:49:25.794Z,11.70
2018-07-23T02:51:54.988Z,10.00
2018-07-23T02:54:23.896Z,12.00
2018-07-23T02:56:53.080Z,12.40
2018-07-23T02:59:21.938Z,9.83
2018-07-23T03:01:51.028Z,14.10
2018-07-23T03:04:19.903Z,10.90
2018-07-23T03:06:48.782Z,11.73
2018-07-23T03:09:17.655Z,9.80
2018-07-23T03:11:46.783Z,11.30
2018-07-23T03:14:16.261Z,12.10
2018-07-23T03:16:45.145Z,13.07
2018-07-23T03:19:14.048Z,11.43
2018-07-23T03:21:43.227Z,14.03
2018-07-23T03:24:12.107Z,11.30
2018-07-23T03:26:41.879Z,16.83
2018-07-23T03:29:11.024Z,11.33
2018-07-23T03:31:39.892Z,11.10
2018-07-23T03:34:08.770Z,10.60
2018-07-23T03:36:37.671Z,10.93
2018-07-23T03:39:08.933Z,13.53
2018-07-23T03:41:37.866Z,9.97
2018-07-23T03:44:07.094Z,10.67
2018-07-23T03:46:35.960Z,10.27
2018-07-23T03:49:05.383Z,11.40
2018-07-23T03:51:34.810Z,10.40
2018-07-23T03:54:03.741Z,9.37
2018-07-23T03:56:32.920Z,12.90
2018-07-23T03:59:02.190Z,10.60
2018-07-23T04:01:31.055Z,9.70
2018-07-23T04:03:59.930Z,10.33
2018-07-23T04:06:28.792Z,11.27
2018-07-23T04:08:57.963Z,9.23
2018-07-23T04:11:27.306Z,9.80
2018-07-23T04:13:56.527Z,9.10
2018-07-23T04:16:25.390Z,11.27
2018-07-23T04:18:54.268Z,10.77
2018-07-23T04:21:23.157Z,9.50
2018-07-23T04:23:52.331Z,9.87
2018-07-23T04:26:21.249Z,10.27
2018-07-23T04:28:50.147Z,10.27
2018-07-23T04:31:19.311Z,10.60
2018-07-23T04:33:48.268Z,15.10
2018-07-23T04:36:17.150Z,10.23
2018-07-23T04:38:46.041Z,10.83
2018-07-23T04:41:14.902Z,8.10
2018-07-23T04:43:43.877Z,9.00
2018-07-23T04:46:12.627Z,10.63
2018-07-23T04:48:41.538Z,8.93
2018-07-23T04:51:10.742Z,9.37
2018-07-23T04:53:39.616Z,8.10
2018-07-23T04:56:08.476Z,8.80
2018-07-23T04:58:37.365Z,8.10
2018-07-23T05:01:06.248Z,12.77
2018-07-23T05:03:35.114Z,8.43
2018-07-23T05:06:04.288Z,7.97
2018-07-23T05:08:33.296Z,9.20
2018-07-23T05:11:02.649Z,8.60
2018-07-23T05:13:31.758Z,8.90
2018-07-23T05:16:00.665Z,7.77
2018-07-23T05:18:29.474Z,10.97
2018-07-23T05:20:58.441Z,8.50
2018-07-23T05:23:27.664Z,7.70
2018-07-23T05:25:56.526Z,8.40
2018-07-23T05:28:26.732Z,9.10
2018-07-23T05:30:55.912Z,11.10
2018-07-23T05:33:24.755Z,8.20
2018-07-23T05:35:53.663Z,11.20
2018-07-23T05:38:22.555Z,16.67
2018-07-23T05:40:51.511Z,7.20
2018-07-23T05:43:20.482Z,10.90
2018-07-23T05:45:49.680Z,9.23
2018-07-23T05:48:18.549Z,8.53
2018-07-23T05:50:47.421Z,12.30
2018-07-23T05:53:16.571Z,8.23
2018-07-23T05:55:45.726Z,8.00
2018-07-23T05:58:14.878Z,12.63
2018-07-23T06:00:43.836Z,20.20
2018-07-23T06:03:13.315Z,11.87
2018-07-23T06:05:43.187Z,15.93
2018-07-23T06:08:12.075Z,24.93
2018-07-23T06:10:41.361Z,9.77
2018-07-23T06:13:10.504Z,8.60
2018-07-23T06:15:39.670Z,8.03
2018-07-23T06:18:08.583Z,13.53
2018-07-23T06:20:37.761Z,17.23
2018-07-23T06:23:06.971Z,9.67
2018-07-23T06:25:36.154Z,6.83
2018-07-23T06:28:05.591Z,6.20
2018-07-23T06:30:34.812Z,7.53
2018-07-23T06:33:03.955Z,11.80
2018-07-23T06:35:32.900Z,16.03
2018-07-23T06:38:01.747Z,5.90
2018-07-23T06:40:30.658Z,9.77
2018-07-23T06:42:59.712Z,5.77
2018-07-23T06:45:28.621Z,11.30
2018-07-23T06:47:57.743Z,8.70
2018-07-23T06:50:26.863Z,6.90
2018-07-23T06:52:55.726Z,10.10
2018-07-23T06:55:24.584Z,16.00
2018-07-23T06:57:53.759Z,13.03
2018-07-23T07:00:22.769Z,12.50
2018-07-23T07:02:51.649Z,7.10
2018-07-23T07:05:20.511Z,11.83
2018-07-23T07:07:49.370Z,7.70
2018-07-23T07:10:18.247Z,7.53
2018-07-23T07:12:47.167Z,7.23
2018-07-23T07:15:16.044Z,5.97
2018-07-23T07:17:45.238Z,6.43
2018-07-23T07:20:14.113Z,6.90
2018-07-23T07:22:43.863Z,3.77
2018-07-23T07:25:12.844Z,6.20
2018-07-23T07:27:41.780Z,6.10
2018-07-23T07:30:10.635Z,3.37
2018-07-23T07:32:39.902Z,9.20
2018-07-23T07:35:08.591Z,4.90
2018-07-23T07:37:37.339Z,3.40
2018-07-23T07:40:06.227Z,4.07
2018-07-23T07:42:35.087Z,4.10
2018-07-23T07:45:04.527Z,4.00
2018-07-23T07:47:33.631Z,5.10
2018-07-23T07:50:02.779Z,3.80
2018-07-23T07:52:31.933Z,5.50
2018-07-23T07:55:05.571Z,2.50
2018-07-23T07:57:34.463Z,3.90
2018-07-23T08:00:03.381Z,2.60
2018-07-23T08:02:32.271Z,10.90
2018-07-23T08:05:01.182Z,5.00
2018-07-23T08:07:30.406Z,2.70
2018-07-23T08:09:59.066Z,3.80
2018-07-23T08:12:28.042Z,2.67
2018-07-23T08:14:57.302Z,5.30
2018-07-23T08:17:26.390Z,2.67
2018-07-23T08:19:55.346Z,7.67
2018-07-23T08:22:24.180Z,2.80
2018-07-23T08:24:53.023Z,4.70
2018-07-23T08:27:21.899Z,4.50
2018-07-23T08:29:51.046Z,6.07
2018-07-23T08:32:19.996Z,6.40
2018-07-23T08:34:49.201Z,3.50
2018-07-23T08:37:18.117Z,5.17
2018-07-23T08:39:46.947Z,2.73
2018-07-23T08:42:15.807Z,3.40
2018-07-23T08:44:44.755Z,6.43
2018-07-23T08:47:13.627Z,3.83
2018-07-23T08:49:42.550Z,6.93
2018-07-23T08:52:11.654Z,8.80
2018-07-23T08:54:40.495Z,2.30
2018-07-23T08:57:09.361Z,3.93
2018-07-23T08:59:38.574Z,2.10
2018-07-23T09:02:07.750Z,2.10
2018-07-23T09:04:36.745Z,2.17
2018-07-23T09:07:05.651Z,5.87
2018-07-23T09:09:34.591Z,3.73
2018-07-23T09:12:03.683Z,2.50
2018-07-23T09:14:32.620Z,2.20
2018-07-23T09:17:01.530Z,2.30
2018-07-23T09:19:30.897Z,2.97
2018-07-23T09:21:59.996Z,2.40
2018-07-23T09:24:29.135Z,1.57
2018-07-23T09:26:58.362Z,1.60
2018-07-23T09:29:27.620Z,3.40
2018-07-23T09:31:56.887Z,7.57
2018-07-23T09:34:25.841Z,10.53
2018-07-23T09:36:55.154Z,7.93
2018-07-23T09:39:24.055Z,9.50
2018-07-23T09:41:52.922Z,12.03
2018-07-23T09:44:21.808Z,3.83
2018-07-23T09:46:50.753Z,2.80
2018-07-23T09:49:19.667Z,38.70
2018-07-23T09:51:48.710Z,43.63
2018-07-23T09:54:17.692Z,7.90
2018-07-23T09:56:46.558Z,15.13
2018-07-23T09:59:15.475Z,15.87
2018-07-23T10:01:44.598Z,11.03
2018-07-23T10:04:13.528Z,14.73
2018-07-23T10:06:42.383Z,3.90
2018-07-23T10:09:12.171Z,3.90
2018-07-23T10:11:41.022Z,7.60
2018-07-23T10:14:10.135Z,3.03
2018-07-23T10:16:39.040Z,5.60
2018-07-23T10:19:07.885Z,19.23
2018-07-23T10:21:36.767Z,14.00
2018-07-23T10:24:05.618Z,10.10
2018-07-23T10:26:35.069Z,3.90
2018-07-23T10:29:04.001Z,2.43
2018-07-23T10:31:32.923Z,2.40
2018-07-23T10:34:02.295Z,4.03
2018-07-23T10:36:31.183Z,10.10
2018-07-23T10:39:00.068Z,14.73
2018-07-23T10:41:29.067Z,8.17
2018-07-23T10:43:58.878Z,12.43
2018-07-23T10:46:27.779Z,37.43
2018-07-23T10:48:56.927Z,10.27
2018-07-23T10:51:26.101Z,10.80
2018-07-23T10:53:55.146Z,21.93
2018-07-23T10:56:25.543Z,6.20
2018-07-23T10:58:54.908Z,15.40
2018-07-23T11:01:23.803Z,13.70
2018-07-23T11:03:52.767Z,11.57
2018-07-23T11:06:21.762Z,12.37
2018-07-23T11:08:51.384Z,19.00
2018-07-23T11:11:20.537Z,9.40
2018-07-23T11:13:49.648Z,4.90
2018-07-23T11:16:18.817Z,8.77
2018-07-23T11:18:48.013Z,8.80
2018-07-23T11:21:16.985Z,3.23
2018-07-23T11:23:47.029Z,2.47
2018-07-23T11:26:15.968Z,4.10
2018-07-23T11:28:44.838Z,3.43
2018-07-23T11:31:13.952Z,2.40
2018-07-23T11:33:43.040Z,2.20
2018-07-23T11:36:12.075Z,3.23
2018-07-23T11:38:42.077Z,2.10
2018-07-23T11:41:11.091Z,3.07
2018-07-23T11:43:41.163Z,2.50
2018-07-23T11:46:24.421Z,1.90
2018-07-23T11:48:39.411Z,2.00
2018-07-23T11:51:08.096Z,2.30
2018-07-23T11:53:37.044Z,5.80
2018-07-23T11:56:05.911Z,4.53
2018-07-23T11:58:34.773Z,2.40
2018-07-23T12:01:03.960Z,3.00
2018-07-23T12:03:33.159Z,2.47
2018-07-23T12:06:02.623Z,3.53
2018-07-23T12:08:31.906Z,5.67
2018-07-23T12:11:00.794Z,2.20
2018-07-23T12:13:29.690Z,5.10
2018-07-23T12:15:58.616Z,3.03
2018-07-23T12:18:27.495Z,4.70
2018-07-23T12:20:56.499Z,2.63
2018-07-23T12:23:25.340Z,2.93
2018-07-23T12:25:54.278Z,2.27
2018-07-23T12:28:23.147Z,2.43
2018-07-23T12:30:52.538Z,2.47
2018-07-23T12:33:21.782Z,4.43
2018-07-23T12:35:50.950Z,2.40
2018-07-23T12:38:19.856Z,2.43
2018-07-23T12:40:48.761Z,3.00
2018-07-23T12:43:17.634Z,2.33
2018-07-23T12:45:46.538Z,3.63
2018-07-23T12:48:15.722Z,3.70
2018-07-23T12:50:44.684Z,4.10
2018-07-23T12:53:13.726Z,5.30
2018-07-23T12:55:42.650Z,5.03
2018-07-23T12:58:11.535Z,2.30
2018-07-23T13:00:40.394Z,4.60
2018-07-23T13:03:09.259Z,2.93
2018-07-23T13:05:38.171Z,2.60
2018-07-23T13:08:07.064Z,2.80
2018-07-23T13:10:36.127Z,3.60
2018-07-23T13:13:05.786Z,3.47
2018-07-23T13:15:34.772Z,4.33
2018-07-23T13:18:03.675Z,3.53
2018-07-23T13:20:32.619Z,2.47
2018-07-23T13:23:01.812Z,4.87
2018-07-23T13:25:30.763Z,4.13
2018-07-23T13:27:59.933Z,3.83
2018-07-23T13:30:28.931Z,9.47
2018-07-23T13:32:57.682Z,2.60
2018-07-23T13:35:26.905Z,4.87
2018-07-23T13:37:56.220Z,2.20
2018-07-23T13:40:25.830Z,2.50
2018-07-23T13:42:54.672Z,2.20
2018-07-23T13:45:23.515Z,6.43
2018-07-23T13:47:52.376Z,2.60
2018-07-23T13:50:21.235Z,2.43
2018-07-23T13:52:50.156Z,3.50
2018-07-23T13:55:19.359Z,6.03
2018-07-23T13:57:48.546Z,5.50
2018-07-23T14:00:17.719Z,3.40
2018-07-23T14:02:46.631Z,4.10
2018-07-23T14:05:15.540Z,4.40
2018-07-23T14:07:44.415Z,6.33
2018-07-23T14:10:13.302Z,5.60
2018-07-23T14:12:42.266Z,5.67
2018-07-23T14:15:11.496Z,5.37
2018-07-23T14:17:40.313Z,7.43
2018-07-23T14:20:09.449Z,5.50
2018-07-23T14:22:38.314Z,5.37
2018-07-23T14:25:07.518Z,5.57
2018-07-23T14:27:36.443Z,5.33
2018-07-23T14:30:05.589Z,5.80
2018-07-23T14:32:34.432Z,5.70
2018-07-23T14:35:03.354Z,4.83
2018-07-23T14:37:32.810Z,4.40
2018-07-23T14:40:01.807Z,4.17
2018-07-23T14:42:30.679Z,4.50
2018-07-23T14:45:00.291Z,3.40
2018-07-23T14:47:29.191Z,3.67
2018-07-23T14:49:58.024Z,3.10
2018-07-23T14:52:27.735Z,3.60
2018-07-23T14:54:56.639Z,2.70
2018-07-23T14:57:25.503Z,3.23
2018-07-23T14:59:54.464Z,2.90
2018-07-23T15:02:23.401Z,2.87
2018-07-23T15:04:52.365Z,3.50
2018-07-23T15:07:21.479Z,3.20
2018-07-23T15:09:50.381Z,4.17
2018-07-23T15:12:19.249Z,2.97
2018-07-23T15:14:48.339Z,3.10
2018-07-23T15:17:17.220Z,3.73
2018-07-23T15:19:46.116Z,3.43
2018-07-23T15:22:14.995Z,3.67
2018-07-23T15:24:43.904Z,4.20
2018-07-23T15:27:13.047Z,2.80
2018-07-23T15:29:41.951Z,2.50
2018-07-23T15:32:11.079Z,6.20
2018-07-23T15:34:40.021Z,3.03
2018-07-23T15:37:09.168Z,3.57
2018-07-23T15:39:38.378Z,2.60
2018-07-23T15:42:07.246Z,2.30
2018-07-23T15:44:36.405Z,5.57
2018-07-23T15:47:05.329Z,3.30
2018-07-23T15:49:34.208Z,3.03
2018-07-23T15:52:03.201Z,3.67
2018-07-23T15:54:32.148Z,2.43
2018-07-23T15:57:01.063Z,3.03
2018-07-23T15:59:30.402Z,3.07
2018-07-23T16:02:00.206Z,2.80
2018-07-23T16:04:29.496Z,3.27
2018-07-23T16:06:58.618Z,3.50
2018-07-23T16:09:27.472Z,2.80
2018-07-23T16:11:56.316Z,3.03
2018-07-23T16:14:26.097Z,2.70
2018-07-23T16:16:54.967Z,2.80
2018-07-23T16:19:24.296Z,4.90
2018-07-23T16:21:53.354Z,2.87
2018-07-23T16:24:22.267Z,6.37
2018-07-23T16:26:51.130Z,4.00
2018-07-23T16:29:20.366Z,3.10
2018-07-23T16:31:49.646Z,3.00
2018-07-23T16:34:18.650Z,4.10
2018-07-23T16:36:47.772Z,4.97
2018-07-23T16:39:16.965Z,4.23
2018-07-23T16:41:45.893Z,4.57
2018-07-23T16:44:14.750Z,3.53
2018-07-23T16:46:43.691Z,2.73
2018-07-23T16:49:12.783Z,2.87
2018-07-23T16:51:41.692Z,2.97
2018-07-23T16:54:10.627Z,3.93
2018-07-23T16:56:39.686Z,3.20
2018-07-23T16:59:08.834Z,3.43
2018-07-23T17:01:37.697Z,3.97
2018-07-23T17:04:06.625Z,4.13
2018-07-23T17:06:35.497Z,3.37
2018-07-23T17:09:07.378Z,3.10
2018-07-23T17:11:36.240Z,3.23
2018-07-23T17:14:05.122Z,3.07
2018-07-23T17:16:34.256Z,6.30
2018-07-23T17:19:03.634Z,3.40
2018-07-23T17:21:32.537Z,3.40
2018-07-23T17:24:01.604Z,3.20
2018-07-23T17:26:30.545Z,3.50
2018-07-23T17:28:59.456Z,5.50
2018-07-23T17:31:28.301Z,5.37
2018-07-23T17:33:57.267Z,3.73
2018-07-23T17:36:26.209Z,3.77
2018-07-23T17:38:55.127Z,3.60
2018-07-23T17:41:24.201Z,3.10
2018-07-23T17:43:53.414Z,6.50
2018-07-23T17:46:22.286Z,3.50
2018-07-23T17:48:51.529Z,3.20
2018-07-23T17:51:20.463Z,5.17
2018-07-23T17:53:49.848Z,3.83
2018-07-23T17:56:18.778Z,3.37
2018-07-23T17:58:47.537Z,3.00
2018-07-23T18:01:16.439Z,3.20
2018-07-23T18:03:45.579Z,5.83
2018-07-23T18:06:14.462Z,3.70
2018-07-23T18:09:14.820Z,3.80
2018-07-23T18:11:43.871Z,5.27
2018-07-23T18:14:12.762Z,3.33
2018-07-23T18:16:41.706Z,3.80
2018-07-23T18:19:10.798Z,2.70
2018-07-23T18:21:39.678Z,3.00
2018-07-23T18:24:08.571Z,2.93
2018-07-23T18:26:37.437Z,4.20
2018-07-23T18:29:06.695Z,3.30
2018-07-23T18:31:36.035Z,2.77
2018-07-23T18:34:04.922Z,2.77
2018-07-23T18:36:34.073Z,2.83
2018-07-23T18:39:02.979Z,3.20
2018-07-23T18:41:32.111Z,4.50
2018-07-23T18:44:00.958Z,3.90
2018-07-23T18:46:29.818Z,3.33
2018-07-23T18:49:22.280Z,4.07
2018-07-23T18:51:54.020Z,4.77
2018-07-23T18:54:27.748Z,5.00
2018-07-23T18:56:59.915Z,3.20
2018-07-23T18:59:30.430Z,3.60
2018-07-23T19:02:04.356Z,3.80
2018-07-23T19:04:34.565Z,6.87
2018-07-23T19:07:04.060Z,4.10
2018-07-23T19:09:33.189Z,3.33
2018-07-23T19:12:02.056Z,4.07
2018-07-23T19:14:30.951Z,3.83
2018-07-23T19:17:00.799Z,4.40
2018-07-23T19:19:29.722Z,5.93
2018-07-23T19:21:58.649Z,3.93
2018-07-23T19:24:27.577Z,6.43
2018-07-23T19:26:56.458Z,3.83
2018-07-23T19:29:25.363Z,6.80
2018-07-23T19:31:54.254Z,5.40
2018-07-23T19:34:23.454Z,3.53
2018-07-23T19:36:52.375Z,3.47
2018-07-23T19:39:21.934Z,2.80
2018-07-23T19:41:50.838Z,3.33
2018-07-23T19:44:19.773Z,4.00
2018-07-23T19:46:48.653Z,3.53
2018-07-23T19:49:17.515Z,3.70
2018-07-23T19:51:47.012Z,3.30
2018-07-23T19:54:15.874Z,3.80
2018-07-23T19:56:44.787Z,3.60
2018-07-23T19:59:13.717Z,3.50
2018-07-23T20:01:42.609Z,3.37
2018-07-23T20:04:11.502Z,4.10
2018-07-23T20:06:43.797Z,11.43
2018-07-23T20:09:12.802Z,5.33
2018-07-23T20:11:41.644Z,4.73
2018-07-23T20:14:11.227Z,3.13
2018-07-23T20:16:40.424Z,4.27
2018-07-23T20:19:09.310Z,4.43
2018-07-23T20:21:38.612Z,7.33
2018-07-23T20:24:07.576Z,3.67
2018-07-23T20:26:36.431Z,5.10
2018-07-23T20:29:05.306Z,3.33
2018-07-23T20:31:34.452Z,5.70
2018-07-23T20:34:03.307Z,4.17
2018-07-23T20:36:32.008Z,3.80
2018-07-23T20:39:00.950Z,6.53
2018-07-23T20:41:29.747Z,4.13
2018-07-23T20:43:58.944Z,3.47
2018-07-23T20:46:27.850Z,4.13
2018-07-23T20:48:56.812Z,3.60
2018-07-23T20:51:25.672Z,4.97
2018-07-23T20:53:54.539Z,6.73
2018-07-23T20:56:23.201Z,3.23
2018-07-23T20:58:51.938Z,3.80
2018-07-23T21:01:20.819Z,3.43
2018-07-23T21:03:50.131Z,3.40
2018-07-23T21:06:19.014Z,8.80
2018-07-23T21:08:48.642Z,3.37
2018-07-23T21:11:17.764Z,10.87
2018-07-23T21:13:47.019Z,5.20
2018-07-23T21:16:15.869Z,4.00
2018-07-23T21:18:44.721Z,6.70
2018-07-23T21:21:13.710Z,4.27
2018-07-23T21:23:42.595Z,6.87
2018-07-23T21:26:11.462Z,5.90
2018-07-23T21:28:40.303Z,7.20
2018-07-23T21:31:09.432Z,7.63
2018-07-23T21:33:38.290Z,3.93
2018-07-23T21:36:07.171Z,6.57
2018-07-23T21:38:36.277Z,3.93
2018-07-23T21:41:05.386Z,6.90
2018-07-23T21:43:34.371Z,4.73
2018-07-23T21:46:03.264Z,4.57
2018-07-23T21:48:32.359Z,4.27
2018-07-23T21:51:01.195Z,6.67
2018-07-23T21:53:30.383Z,4.20
2018-07-23T21:55:59.520Z,4.30
2018-07-23T21:58:28.658Z,5.10
2018-07-23T22:00:57.874Z,6.30
2018-07-23T22:03:28.024Z,5.30
2018-07-23T22:05:57.872Z,5.90
2018-07-23T22:08:26.746Z,3.20
2018-07-23T22:10:55.706Z,4.53
2018-07-23T22:13:24.715Z,4.80
2018-07-23T22:15:53.831Z,3.60
2018-07-23T22:18:22.671Z,3.73
2018-07-23T22:20:51.724Z,3.50
2018-07-23T22:23:20.609Z,13.13
2018-07-23T22:25:50.984Z,3.50
2018-07-23T22:28:21.524Z,7.40
2018-07-23T22:30:51.421Z,3.60
2018-07-23T22:33:20.380Z,3.80
2018-07-23T22:35:49.246Z,4.20
2018-07-23T22:38:18.408Z,5.63
2018-07-23T22:40:47.282Z,8.67
2018-07-23T22:43:17.907Z,7.80
2018-07-23T22:45:48.514Z,5.73
2018-07-23T22:48:17.798Z,6.40
2018-07-23T22:50:47.661Z,7.90
2018-07-23T22:53:17.755Z,5.13
2018-07-23T22:55:48.040Z,4.43
2018-07-23T22:58:17.816Z,4.13
2018-07-23T23:00:48.028Z,6.43
2018-07-23T23:03:18.603Z,6.13
2018-07-23T23:05:49.223Z,7.43
2018-07-23T23:08:18.440Z,4.57
2018-07-23T23:10:48.918Z,8.37
2018-07-23T23:13:18.310Z,4.40
2018-07-23T23:15:47.217Z,5.80
2018-07-23T23:18:16.376Z,4.40
2018-07-23T23:20:45.266Z,5.57
2018-07-23T23:23:14.127Z,4.47
2018-07-23T23:25:43.798Z,4.30
2018-07-23T23:28:12.652Z,6.60
2018-07-23T23:30:41.522Z,4.73
2018-07-23T23:33:10.952Z,4.70
2018-07-23T23:35:39.847Z,5.40
2018-07-23T23:38:08.532Z,4.80
2018-07-23T23:40:38.031Z,9.20
2018-07-23T23:43:07.134Z,4.40
2018-07-23T23:45:35.911Z,11.17
2018-07-23T23:48:04.948Z,5.73
2018-07-23T23:50:34.346Z,4.50
2018-07-23T23:53:03.234Z,5.83
2018-07-23T23:55:32.074Z,4.40
2018-07-23T23:58:01.190Z,3.90
